CheckWX is a tool to help pilots better visualize weather data.  It is not intended as a substitute for an official pre-flight weather briefing.

13:15:14 UTC

KBAX METAR
Huron County Memorial Airport
Bad Axe, Michigan, USA
Current

20 mins ago

KBAX 181255Z AUTO 02005KT 10SM SCT022 SCT065 BKN090 M07/M10 A3007 RMK AO2 T10671105
Observed
Feb-18 @ 12:55 UTC
Wind
  • 020° at 5 KTS
Visibility
10 SM
Flight Rules
VFR
Cloud Levels
  • Scattered at 2,200' AGL
  • Scattered at 6,500' AGL
  • Broken at 9,000' AGL
Temperature
-7°C / 19°F
Dewpoint
-11°C / 12°F
Humidity
73%
Altimeter
30.07" Hg
Pressure
1018.32 hPa
Previous

39 mins ago

KBAX 181236Z AUTO 02006KT 10SM SCT024 SCT031 OVC080 M06/M10 A3006 RMK AO2 T10651098
Observed
Feb-18 @ 12:36 UTC
Wind
  • 020° at 6 KTS
Visibility
10 SM
Flight Rules
VFR
Cloud Levels
  • Scattered at 2,400' AGL
  • Scattered at 3,100' AGL
  • Overcast at 8,000' AGL
Temperature
-7°C / 19°F
Dewpoint
-10°C / 14°F
Humidity
79%
Altimeter
30.06" Hg
Pressure
1017.92 hPa
Previous

59 mins ago

KBAX 181216Z AUTO 03008KT 7SM -SN BKN023 OVC030 M07/M10 A3004 RMK AO2 T10661098
Observed
Feb-18 @ 12:16 UTC
Wind
  • 030° at 8 KTS
Visibility
7 SM
Flight Rules
MVFR
Conditions
Light Snow
Cloud Levels
  • Broken at 2,300' AGL
  • Overcast at 3,000' AGL
Temperature
-7°C / 19°F
Dewpoint
-10°C / 14°F
Humidity
79%
Altimeter
30.04" Hg
Pressure
1017.32 hPa